sensor_id;sensor_type;location;lat;lon;timestamp;P1;durP1;ratioP1;P2;durP2;ratioP2
65998;SDS011;52766;56.008;37.440;2023-04-24T00:02:01;29.40;;;12.38;;
65998;SDS011;52766;56.008;37.440;2023-04-24T00:04:27;28.50;;;12.05;;
65998;SDS011;52766;56.008;37.440;2023-04-24T00:06:53;30.17;;;9.60;;
65998;SDS011;52766;56.008;37.440;2023-04-24T00:09:23;27.02;;;10.35;;
65998;SDS011;52766;56.008;37.440;2023-04-24T00:11:49;25.85;;;10.93;;
65998;SDS011;52766;56.008;37.440;2023-04-24T00:14:16;28.63;;;10.85;;
65998;SDS011;52766;56.008;37.440;2023-04-24T00:16:43;24.83;;;9.00;;
65998;SDS011;52766;56.008;37.440;2023-04-24T00:19:10;38.97;;;13.90;;
65998;SDS011;52766;56.008;37.440;2023-04-24T00:21:37;25.55;;;10.43;;
65998;SDS011;52766;56.008;37.440;2023-04-24T00:24:03;27.55;;;11.38;;
65998;SDS011;52766;56.008;37.440;2023-04-24T00:26:29;29.83;;;12.35;;
65998;SDS011;52766;56.008;37.440;2023-04-24T00:28:58;34.78;;;14.15;;
65998;SDS011;52766;56.008;37.440;2023-04-24T00:31:50;34.10;;;14.02;;
65998;SDS011;52766;56.008;37.440;2023-04-24T00:34:16;36.90;;;15.23;;
65998;SDS011;52766;56.008;37.440;2023-04-24T00:36:42;30.65;;;12.18;;
65998;SDS011;52766;56.008;37.440;2023-04-24T00:39:09;39.05;;;15.45;;
65998;SDS011;52766;56.008;37.440;2023-04-24T00:41:35;37.92;;;16.10;;
65998;SDS011;52766;56.008;37.440;2023-04-24T00:44:01;34.25;;;15.27;;
65998;SDS011;52766;56.008;37.440;2023-04-24T00:46:27;43.17;;;17.00;;
65998;SDS011;52766;56.008;37.440;2023-04-24T00:48:56;30.08;;;13.98;;
65998;SDS011;52766;56.008;37.440;2023-04-24T00:51:22;31.73;;;12.63;;
65998;SDS011;52766;56.008;37.440;2023-04-24T00:53:50;30.52;;;15.00;;
65998;SDS011;52766;56.008;37.440;2023-04-24T00:56:17;31.35;;;13.57;;
65998;SDS011;52766;56.008;37.440;2023-04-24T00:58:43;29.33;;;11.43;;
65998;SDS011;52766;56.008;37.440;2023-04-24T01:01:10;31.45;;;14.88;;
65998;SDS011;52766;56.008;37.440;2023-04-24T01:03:38;25.85;;;10.43;;
65998;SDS011;52766;56.008;37.440;2023-04-24T01:06:08;32.67;;;14.90;;
65998;SDS011;52766;56.008;37.440;2023-04-24T01:08:34;36.00;;;15.20;;
65998;SDS011;52766;56.008;37.440;2023-04-24T01:11:03;45.38;;;18.20;;
65998;SDS011;52766;56.008;37.440;2023-04-24T01:13:31;51.92;;;22.90;;
65998;SDS011;52766;56.008;37.440;2023-04-24T01:15:58;33.95;;;17.95;;
65998;SDS011;52766;56.008;37.440;2023-04-24T01:18:23;47.20;;;19.73;;
65998;SDS011;52766;56.008;37.440;2023-04-24T01:20:53;39.88;;;18.35;;
65998;SDS011;52766;56.008;37.440;2023-04-24T01:23:20;42.95;;;17.55;;
65998;SDS011;52766;56.008;37.440;2023-04-24T01:25:46;28.33;;;13.43;;
65998;SDS011;52766;56.008;37.440;2023-04-24T01:28:12;29.10;;;12.38;;
65998;SDS011;52766;56.008;37.440;2023-04-24T01:30:39;32.45;;;13.93;;
65998;SDS011;52766;56.008;37.440;2023-04-24T01:33:05;27.15;;;13.27;;
65998;SDS011;52766;56.008;37.440;2023-04-24T01:35:31;22.63;;;10.63;;
65998;SDS011;52766;56.008;37.440;2023-04-24T01:37:57;26.20;;;9.68;;
65998;SDS011;52766;56.008;37.440;2023-04-24T01:40:24;25.70;;;10.90;;
65998;SDS011;52766;56.008;37.440;2023-04-24T01:42:49;26.27;;;12.70;;
65998;SDS011;52766;56.008;37.440;2023-04-24T01:45:16;35.55;;;13.95;;
65998;SDS011;52766;56.008;37.440;2023-04-24T01:47:42;29.85;;;14.35;;
65998;SDS011;52766;56.008;37.440;2023-04-24T01:50:08;36.95;;;14.63;;
65998;SDS011;52766;56.008;37.440;2023-04-24T01:52:34;40.67;;;14.65;;
65998;SDS011;52766;56.008;37.440;2023-04-24T01:55:04;25.02;;;11.23;;
65998;SDS011;52766;56.008;37.440;2023-04-24T01:57:31;31.63;;;13.38;;
65998;SDS011;52766;56.008;37.440;2023-04-24T01:59:57;30.17;;;11.65;;
65998;SDS011;52766;56.008;37.440;2023-04-24T02:02:23;47.42;;;14.80;;
65998;SDS011;52766;56.008;37.440;2023-04-24T02:04:49;35.83;;;11.02;;
65998;SDS011;52766;56.008;37.440;2023-04-24T02:07:16;31.05;;;11.15;;
65998;SDS011;52766;56.008;37.440;2023-04-24T02:09:42;26.45;;;10.32;;
65998;SDS011;52766;56.008;37.440;2023-04-24T02:12:08;22.23;;;8.80;;
65998;SDS011;52766;56.008;37.440;2023-04-24T02:14:36;20.77;;;8.75;;
65998;SDS011;52766;56.008;37.440;2023-04-24T02:17:02;26.27;;;9.20;;
65998;SDS011;52766;56.008;37.440;2023-04-24T02:19:33;24.10;;;8.88;;
65998;SDS011;52766;56.008;37.440;2023-04-24T02:21:59;23.67;;;9.57;;
65998;SDS011;52766;56.008;37.440;2023-04-24T02:24:24;21.48;;;8.95;;
65998;SDS011;52766;56.008;37.440;2023-04-24T02:26:50;20.63;;;7.85;;
65998;SDS011;52766;56.008;37.440;2023-04-24T02:29:16;18.85;;;8.40;;
65998;SDS011;52766;56.008;37.440;2023-04-24T02:31:43;16.10;;;7.75;;
65998;SDS011;52766;56.008;37.440;2023-04-24T02:34:09;21.10;;;10.25;;
65998;SDS011;52766;56.008;37.440;2023-04-24T02:36:36;22.05;;;10.13;;
65998;SDS011;52766;56.008;37.440;2023-04-24T02:39:02;26.05;;;9.82;;
65998;SDS011;52766;56.008;37.440;2023-04-24T02:41:29;26.52;;;10.73;;
65998;SDS011;52766;56.008;37.440;2023-04-24T02:43:57;26.75;;;10.45;;
65998;SDS011;52766;56.008;37.440;2023-04-24T02:46:24;24.27;;;8.95;;
65998;SDS011;52766;56.008;37.440;2023-04-24T02:48:50;19.90;;;9.07;;
65998;SDS011;52766;56.008;37.440;2023-04-24T02:51:16;21.48;;;9.70;;
65998;SDS011;52766;56.008;37.440;2023-04-24T02:53:43;26.48;;;9.63;;
65998;SDS011;52766;56.008;37.440;2023-04-24T02:56:09;24.75;;;10.65;;
65998;SDS011;52766;56.008;37.440;2023-04-24T02:58:37;37.97;;;12.45;;
65998;SDS011;52766;56.008;37.440;2023-04-24T03:01:05;35.42;;;11.80;;
65998;SDS011;52766;56.008;37.440;2023-04-24T03:03:32;32.55;;;12.13;;
65998;SDS011;52766;56.008;37.440;2023-04-24T03:05:59;33.25;;;13.02;;
65998;SDS011;52766;56.008;37.440;2023-04-24T03:08:25;25.73;;;10.10;;
65998;SDS011;52766;56.008;37.440;2023-04-24T03:10:51;33.38;;;11.85;;
65998;SDS011;52766;56.008;37.440;2023-04-24T03:13:17;28.02;;;10.68;;
65998;SDS011;52766;56.008;37.440;2023-04-24T03:15:43;31.83;;;11.60;;
65998;SDS011;52766;56.008;37.440;2023-04-24T03:18:10;26.48;;;9.23;;
65998;SDS011;52766;56.008;37.440;2023-04-24T03:20:38;25.38;;;10.32;;
65998;SDS011;52766;56.008;37.440;2023-04-24T03:23:04;22.08;;;9.43;;
65998;SDS011;52766;56.008;37.440;2023-04-24T03:25:30;30.55;;;10.75;;
65998;SDS011;52766;56.008;37.440;2023-04-24T03:27:57;34.03;;;12.10;;
65998;SDS011;52766;56.008;37.440;2023-04-24T03:30:38;38.05;;;10.98;;
65998;SDS011;52766;56.008;37.440;2023-04-24T03:33:04;34.20;;;10.63;;
65998;SDS011;52766;56.008;37.440;2023-04-24T03:35:35;27.90;;;9.63;;
65998;SDS011;52766;56.008;37.440;2023-04-24T03:38:05;24.25;;;9.45;;
65998;SDS011;52766;56.008;37.440;2023-04-24T03:40:53;26.42;;;8.82;;
65998;SDS011;52766;56.008;37.440;2023-04-24T03:43:33;18.98;;;9.00;;
65998;SDS011;52766;56.008;37.440;2023-04-24T03:46:01;21.77;;;9.00;;
65998;SDS011;52766;56.008;37.440;2023-04-24T03:48:29;25.70;;;9.15;;
65998;SDS011;52766;56.008;37.440;2023-04-24T03:50:56;28.45;;;9.63;;
65998;SDS011;52766;56.008;37.440;2023-04-24T03:53:24;24.83;;;9.65;;
65998;SDS011;52766;56.008;37.440;2023-04-24T03:55:52;28.48;;;10.85;;
65998;SDS011;52766;56.008;37.440;2023-04-24T03:58:19;30.08;;;11.68;;
65998;SDS011;52766;56.008;37.440;2023-04-24T04:00:46;22.38;;;10.25;;
65998;SDS011;52766;56.008;37.440;2023-04-24T04:03:31;22.90;;;10.50;;
65998;SDS011;52766;56.008;37.440;2023-04-24T04:05:57;34.53;;;12.30;;
65998;SDS011;52766;56.008;37.440;2023-04-24T04:08:24;34.97;;;12.75;;
65998;SDS011;52766;56.008;37.440;2023-04-24T04:10:53;39.65;;;12.70;;
65998;SDS011;52766;56.008;37.440;2023-04-24T04:13:27;25.63;;;12.32;;
65998;SDS011;52766;56.008;37.440;2023-04-24T04:15:54;25.92;;;12.75;;
65998;SDS011;52766;56.008;37.440;2023-04-24T04:18:25;30.23;;;11.77;;
65998;SDS011;52766;56.008;37.440;2023-04-24T04:20:56;23.42;;;11.60;;
65998;SDS011;52766;56.008;37.440;2023-04-24T04:23:23;29.85;;;13.75;;
65998;SDS011;52766;56.008;37.440;2023-04-24T04:26:14;29.10;;;13.00;;
65998;SDS011;52766;56.008;37.440;2023-04-24T04:28:54;24.20;;;13.25;;
65998;SDS011;52766;56.008;37.440;2023-04-24T04:31:24;33.53;;;13.32;;
65998;SDS011;52766;56.008;37.440;2023-04-24T04:34:00;24.60;;;12.82;;
65998;SDS011;52766;56.008;37.440;2023-04-24T04:36:29;24.35;;;13.07;;
65998;SDS011;52766;56.008;37.440;2023-04-24T04:39:09;24.92;;;12.52;;
65998;SDS011;52766;56.008;37.440;2023-04-24T04:41:50;19.15;;;12.65;;
65998;SDS011;52766;56.008;37.440;2023-04-24T04:44:18;20.10;;;11.50;;
65998;SDS011;52766;56.008;37.440;2023-04-24T04:46:44;18.95;;;10.95;;
65998;SDS011;52766;56.008;37.440;2023-04-24T04:49:32;22.45;;;12.93;;
65998;SDS011;52766;56.008;37.440;2023-04-24T04:52:01;26.83;;;13.88;;
65998;SDS011;52766;56.008;37.440;2023-04-24T04:54:27;26.75;;;13.02;;
65998;SDS011;52766;56.008;37.440;2023-04-24T04:56:55;24.73;;;12.43;;
65998;SDS011;52766;56.008;37.440;2023-04-24T04:59:22;22.00;;;12.02;;
65998;SDS011;52766;56.008;37.440;2023-04-24T05:01:58;21.67;;;12.15;;
65998;SDS011;52766;56.008;37.440;2023-04-24T05:04:26;21.73;;;10.95;;
65998;SDS011;52766;56.008;37.440;2023-04-24T05:06:53;25.27;;;12.95;;
65998;SDS011;52766;56.008;37.440;2023-04-24T05:09:39;19.48;;;11.73;;
65998;SDS011;52766;56.008;37.440;2023-04-24T05:12:24;18.20;;;10.35;;
65998;SDS011;52766;56.008;37.440;2023-04-24T05:14:55;22.13;;;11.40;;
65998;SDS011;52766;56.008;37.440;2023-04-24T05:17:23;16.80;;;9.55;;
65998;SDS011;52766;56.008;37.440;2023-04-24T05:19:53;27.25;;;12.27;;
65998;SDS011;52766;56.008;37.440;2023-04-24T05:22:19;19.67;;;10.82;;
65998;SDS011;52766;56.008;37.440;2023-04-24T05:24:52;22.17;;;11.23;;
65998;SDS011;52766;56.008;37.440;2023-04-24T05:27:45;20.27;;;10.98;;
65998;SDS011;52766;56.008;37.440;2023-04-24T05:30:14;19.80;;;11.48;;
65998;SDS011;52766;56.008;37.440;2023-04-24T05:32:41;26.85;;;14.50;;
65998;SDS011;52766;56.008;37.440;2023-04-24T05:35:07;21.45;;;11.95;;
65998;SDS011;52766;56.008;37.440;2023-04-24T05:37:37;23.13;;;11.88;;
65998;SDS011;52766;56.008;37.440;2023-04-24T05:40:04;20.95;;;11.32;;
65998;SDS011;52766;56.008;37.440;2023-04-24T05:42:31;17.30;;;9.40;;
65998;SDS011;52766;56.008;37.440;2023-04-24T05:45:00;16.52;;;11.00;;
65998;SDS011;52766;56.008;37.440;2023-04-24T05:47:26;20.58;;;9.32;;
65998;SDS011;52766;56.008;37.440;2023-04-24T05:49:53;17.15;;;9.85;;
65998;SDS011;52766;56.008;37.440;2023-04-24T05:52:20;16.00;;;9.38;;
65998;SDS011;52766;56.008;37.440;2023-04-24T05:54:47;23.15;;;9.20;;
65998;SDS011;52766;56.008;37.440;2023-04-24T05:57:19;17.25;;;9.10;;
65998;SDS011;52766;56.008;37.440;2023-04-24T05:59:53;19.92;;;9.38;;
65998;SDS011;52766;56.008;37.440;2023-04-24T06:02:20;18.85;;;9.05;;
65998;SDS011;52766;56.008;37.440;2023-04-24T06:04:49;17.60;;;8.80;;
65998;SDS011;52766;56.008;37.440;2023-04-24T06:07:19;12.88;;;8.25;;
65998;SDS011;52766;56.008;37.440;2023-04-24T06:09:46;14.50;;;8.23;;
65998;SDS011;52766;56.008;37.440;2023-04-24T06:12:12;14.75;;;7.93;;
65998;SDS011;52766;56.008;37.440;2023-04-24T06:15:11;17.70;;;7.65;;
65998;SDS011;52766;56.008;37.440;2023-04-24T06:18:12;13.38;;;7.53;;
65998;SDS011;52766;56.008;37.440;2023-04-24T06:20:47;15.13;;;8.45;;
65998;SDS011;52766;56.008;37.440;2023-04-24T06:23:16;12.32;;;7.50;;
65998;SDS011;52766;56.008;37.440;2023-04-24T06:25:44;13.88;;;7.22;;
65998;SDS011;52766;56.008;37.440;2023-04-24T06:28:11;11.40;;;6.47;;
65998;SDS011;52766;56.008;37.440;2023-04-24T06:30:36;10.75;;;6.78;;
65998;SDS011;52766;56.008;37.440;2023-04-24T06:33:04;15.80;;;7.05;;
65998;SDS011;52766;56.008;37.440;2023-04-24T06:35:30;12.23;;;6.60;;
65998;SDS011;52766;56.008;37.440;2023-04-24T06:37:56;10.82;;;6.60;;
65998;SDS011;52766;56.008;37.440;2023-04-24T06:40:22;11.98;;;6.60;;
65998;SDS011;52766;56.008;37.440;2023-04-24T06:42:48;14.18;;;6.90;;
65998;SDS011;52766;56.008;37.440;2023-04-24T06:45:14;9.38;;;5.60;;
65998;SDS011;52766;56.008;37.440;2023-04-24T06:47:41;10.00;;;6.55;;
65998;SDS011;52766;56.008;37.440;2023-04-24T06:50:08;10.45;;;6.13;;
65998;SDS011;52766;56.008;37.440;2023-04-24T06:52:38;12.63;;;6.53;;
65998;SDS011;52766;56.008;37.440;2023-04-24T06:55:05;11.60;;;7.30;;
65998;SDS011;52766;56.008;37.440;2023-04-24T06:58:00;12.00;;;6.78;;
65998;SDS011;52766;56.008;37.440;2023-04-24T07:00:39;10.32;;;6.95;;
65998;SDS011;52766;56.008;37.440;2023-04-24T07:03:05;11.30;;;5.68;;
65998;SDS011;52766;56.008;37.440;2023-04-24T07:05:32;13.70;;;6.45;;
65998;SDS011;52766;56.008;37.440;2023-04-24T07:08:11;10.75;;;7.43;;
65998;SDS011;52766;56.008;37.440;2023-04-24T07:10:38;12.40;;;6.30;;
65998;SDS011;52766;56.008;37.440;2023-04-24T07:13:04;10.30;;;6.55;;
65998;SDS011;52766;56.008;37.440;2023-04-24T07:18:10;9.23;;;6.07;;
65998;SDS011;52766;56.008;37.440;2023-04-24T07:20:39;16.25;;;6.95;;
65998;SDS011;52766;56.008;37.440;2023-04-24T07:23:12;9.00;;;6.15;;
65998;SDS011;52766;56.008;37.440;2023-04-24T07:31:00;10.25;;;6.88;;
65998;SDS011;52766;56.008;37.440;2023-04-24T07:36:35;11.77;;;7.00;;
65998;SDS011;52766;56.008;37.440;2023-04-24T07:39:07;17.55;;;6.60;;
65998;SDS011;52766;56.008;37.440;2023-04-24T07:41:33;9.45;;;6.28;;
65998;SDS011;52766;56.008;37.440;2023-04-24T07:44:03;11.63;;;6.95;;
65998;SDS011;52766;56.008;37.440;2023-04-24T07:46:37;10.48;;;6.47;;
65998;SDS011;52766;56.008;37.440;2023-04-24T07:49:03;10.15;;;6.53;;
65998;SDS011;52766;56.008;37.440;2023-04-24T07:51:33;13.13;;;6.43;;
65998;SDS011;52766;56.008;37.440;2023-04-24T07:54:04;10.40;;;6.90;;
65998;SDS011;52766;56.008;37.440;2023-04-24T07:56:33;11.07;;;6.88;;
65998;SDS011;52766;56.008;37.440;2023-04-24T07:59:15;11.18;;;8.02;;
65998;SDS011;52766;56.008;37.440;2023-04-24T08:02:00;15.32;;;8.45;;
65998;SDS011;52766;56.008;37.440;2023-04-24T08:04:28;10.48;;;6.05;;
65998;SDS011;52766;56.008;37.440;2023-04-24T08:06:56;10.43;;;6.80;;
65998;SDS011;52766;56.008;37.440;2023-04-24T08:09:54;9.43;;;6.57;;
65998;SDS011;52766;56.008;37.440;2023-04-24T08:12:22;11.77;;;6.78;;
65998;SDS011;52766;56.008;37.440;2023-04-24T08:14:53;13.85;;;7.30;;
65998;SDS011;52766;56.008;37.440;2023-04-24T08:17:20;12.65;;;6.72;;
65998;SDS011;52766;56.008;37.440;2023-04-24T08:19:49;12.98;;;7.00;;
65998;SDS011;52766;56.008;37.440;2023-04-24T08:22:20;11.10;;;6.40;;
65998;SDS011;52766;56.008;37.440;2023-04-24T08:24:55;10.43;;;5.60;;
65998;SDS011;52766;56.008;37.440;2023-04-24T08:31:16;9.80;;;5.95;;
65998;SDS011;52766;56.008;37.440;2023-04-24T08:33:43;10.82;;;5.30;;
65998;SDS011;52766;56.008;37.440;2023-04-24T08:36:28;10.93;;;5.53;;
65998;SDS011;52766;56.008;37.440;2023-04-24T08:42:24;13.25;;;5.82;;
65998;SDS011;52766;56.008;37.440;2023-04-24T08:45:15;10.13;;;5.22;;
65998;SDS011;52766;56.008;37.440;2023-04-24T08:47:56;10.68;;;5.38;;
65998;SDS011;52766;56.008;37.440;2023-04-24T08:50:24;19.77;;;5.85;;
65998;SDS011;52766;56.008;37.440;2023-04-24T08:53:01;14.30;;;5.72;;
65998;SDS011;52766;56.008;37.440;2023-04-24T08:56:01;10.50;;;4.93;;
65998;SDS011;52766;56.008;37.440;2023-04-24T08:58:51;9.90;;;5.90;;
65998;SDS011;52766;56.008;37.440;2023-04-24T09:01:25;10.93;;;6.10;;
65998;SDS011;52766;56.008;37.440;2023-04-24T09:03:59;8.35;;;5.15;;
65998;SDS011;52766;56.008;37.440;2023-04-24T09:06:55;7.13;;;5.20;;
65998;SDS011;52766;56.008;37.440;2023-04-24T09:09:24;11.65;;;6.03;;
65998;SDS011;52766;56.008;37.440;2023-04-24T09:12:11;8.48;;;5.22;;
65998;SDS011;52766;56.008;37.440;2023-04-24T09:14:41;11.55;;;5.97;;
65998;SDS011;52766;56.008;37.440;2023-04-24T09:19:42;10.90;;;5.35;;
65998;SDS011;52766;56.008;37.440;2023-04-24T09:22:39;10.07;;;5.30;;
65998;SDS011;52766;56.008;37.440;2023-04-24T09:25:08;10.73;;;5.22;;
65998;SDS011;52766;56.008;37.440;2023-04-24T09:27:41;10.35;;;5.25;;
65998;SDS011;52766;56.008;37.440;2023-04-24T09:30:13;9.52;;;5.13;;
65998;SDS011;52766;56.008;37.440;2023-04-24T09:32:58;9.10;;;5.20;;
65998;SDS011;52766;56.008;37.440;2023-04-24T09:35:48;9.45;;;5.40;;
65998;SDS011;52766;56.008;37.440;2023-04-24T09:38:15;8.35;;;5.32;;
65998;SDS011;52766;56.008;37.440;2023-04-24T09:40:41;12.02;;;5.50;;
65998;SDS011;52766;56.008;37.440;2023-04-24T09:43:11;8.93;;;5.40;;
65998;SDS011;52766;56.008;37.440;2023-04-24T09:49:12;9.50;;;5.32;;
65998;SDS011;52766;56.008;37.440;2023-04-24T09:52:02;10.52;;;5.57;;
65998;SDS011;52766;56.008;37.440;2023-04-24T09:54:38;14.13;;;6.78;;
65998;SDS011;52766;56.008;37.440;2023-04-24T09:57:07;9.52;;;4.32;;
65998;SDS011;52766;56.008;37.440;2023-04-24T09:59:33;7.93;;;4.78;;
65998;SDS011;52766;56.008;37.440;2023-04-24T10:02:15;12.95;;;5.47;;
65998;SDS011;52766;56.008;37.440;2023-04-24T10:04:56;9.45;;;5.13;;
65998;SDS011;52766;56.008;37.440;2023-04-24T10:07:27;7.32;;;4.95;;
65998;SDS011;52766;56.008;37.440;2023-04-24T10:09:53;14.35;;;5.70;;
65998;SDS011;52766;56.008;37.440;2023-04-24T10:12:22;7.32;;;4.32;;
65998;SDS011;52766;56.008;37.440;2023-04-24T10:14:48;9.82;;;4.60;;
65998;SDS011;52766;56.008;37.440;2023-04-24T10:17:18;11.50;;;5.75;;
65998;SDS011;52766;56.008;37.440;2023-04-24T10:19:48;7.88;;;4.80;;
65998;SDS011;52766;56.008;37.440;2023-04-24T10:22:14;7.85;;;4.68;;
65998;SDS011;52766;56.008;37.440;2023-04-24T10:24:42;7.25;;;4.88;;
65998;SDS011;52766;56.008;37.440;2023-04-24T10:27:16;11.20;;;5.55;;
65998;SDS011;52766;56.008;37.440;2023-04-24T10:29:46;8.55;;;5.18;;
65998;SDS011;52766;56.008;37.440;2023-04-24T10:32:13;8.25;;;5.40;;
65998;SDS011;52766;56.008;37.440;2023-04-24T10:34:43;8.68;;;5.63;;
65998;SDS011;52766;56.008;37.440;2023-04-24T10:37:11;7.95;;;5.40;;
65998;SDS011;52766;56.008;37.440;2023-04-24T10:39:39;7.38;;;4.63;;
65998;SDS011;52766;56.008;37.440;2023-04-24T10:42:15;8.68;;;5.18;;
65998;SDS011;52766;56.008;37.440;2023-04-24T10:44:43;10.32;;;5.07;;
65998;SDS011;52766;56.008;37.440;2023-04-24T10:47:14;9.25;;;5.43;;
65998;SDS011;52766;56.008;37.440;2023-04-24T10:49:40;9.95;;;5.43;;
65998;SDS011;52766;56.008;37.440;2023-04-24T10:52:08;9.35;;;4.95;;
65998;SDS011;52766;56.008;37.440;2023-04-24T10:54:35;13.93;;;5.80;;
65998;SDS011;52766;56.008;37.440;2023-04-24T10:59:51;8.25;;;4.65;;
65998;SDS011;52766;56.008;37.440;2023-04-24T11:02:45;8.30;;;4.75;;
65998;SDS011;52766;56.008;37.440;2023-04-24T11:05:24;7.53;;;4.45;;
65998;SDS011;52766;56.008;37.440;2023-04-24T11:08:27;8.38;;;5.20;;
65998;SDS011;52766;56.008;37.440;2023-04-24T11:14:15;7.65;;;4.60;;
65998;SDS011;52766;56.008;37.440;2023-04-24T11:16:45;10.48;;;5.22;;
65998;SDS011;52766;56.008;37.440;2023-04-24T11:19:21;7.53;;;4.45;;
65998;SDS011;52766;56.008;37.440;2023-04-24T11:28:05;10.57;;;5.30;;
65998;SDS011;52766;56.008;37.440;2023-04-24T11:30:43;9.80;;;5.20;;
65998;SDS011;52766;56.008;37.440;2023-04-24T11:34:54;13.25;;;5.75;;
65998;SDS011;52766;56.008;37.440;2023-04-24T11:37:46;9.02;;;5.72;;
65998;SDS011;52766;56.008;37.440;2023-04-24T11:42:45;14.77;;;5.60;;
65998;SDS011;52766;56.008;37.440;2023-04-24T11:45:20;10.18;;;5.53;;
65998;SDS011;52766;56.008;37.440;2023-04-24T11:47:55;9.93;;;5.28;;
65998;SDS011;52766;56.008;37.440;2023-04-24T11:50:26;13.40;;;5.90;;
65998;SDS011;52766;56.008;37.440;2023-04-24T11:57:51;14.15;;;5.90;;
65998;SDS011;52766;56.008;37.440;2023-04-24T12:00:19;15.95;;;5.70;;
65998;SDS011;52766;56.008;37.440;2023-04-24T12:02:48;13.55;;;5.40;;
65998;SDS011;52766;56.008;37.440;2023-04-24T12:05:22;7.97;;;5.85;;
65998;SDS011;52766;56.008;37.440;2023-04-24T12:07:53;8.10;;;5.30;;
65998;SDS011;52766;56.008;37.440;2023-04-24T12:10:29;9.90;;;5.55;;
65998;SDS011;52766;56.008;37.440;2023-04-24T12:13:05;16.00;;;6.05;;
65998;SDS011;52766;56.008;37.440;2023-04-24T12:18:27;7.55;;;4.97;;
65998;SDS011;52766;56.008;37.440;2023-04-24T12:21:14;12.57;;;6.03;;
65998;SDS011;52766;56.008;37.440;2023-04-24T12:24:30;9.85;;;5.03;;
65998;SDS011;52766;56.008;37.440;2023-04-24T12:30:26;8.25;;;5.30;;
65998;SDS011;52766;56.008;37.440;2023-04-24T12:33:00;11.15;;;4.57;;
65998;SDS011;52766;56.008;37.440;2023-04-24T12:35:30;11.70;;;4.40;;
65998;SDS011;52766;56.008;37.440;2023-04-24T12:38:13;16.08;;;6.25;;
65998;SDS011;52766;56.008;37.440;2023-04-24T12:40:43;13.00;;;5.38;;
65998;SDS011;52766;56.008;37.440;2023-04-24T12:43:20;7.93;;;5.03;;
65998;SDS011;52766;56.008;37.440;2023-04-24T12:45:48;7.32;;;5.05;;
65998;SDS011;52766;56.008;37.440;2023-04-24T12:48:15;9.15;;;5.15;;
65998;SDS011;52766;56.008;37.440;2023-04-24T12:50:42;10.85;;;5.22;;
65998;SDS011;52766;56.008;37.440;2023-04-24T12:53:13;7.40;;;4.78;;
65998;SDS011;52766;56.008;37.440;2023-04-24T12:55:40;10.57;;;5.47;;
65998;SDS011;52766;56.008;37.440;2023-04-24T12:58:07;11.82;;;4.95;;
65998;SDS011;52766;56.008;37.440;2023-04-24T13:00:38;10.38;;;4.53;;
65998;SDS011;52766;56.008;37.440;2023-04-24T13:03:06;10.65;;;5.90;;
65998;SDS011;52766;56.008;37.440;2023-04-24T13:05:33;9.93;;;5.78;;
65998;SDS011;52766;56.008;37.440;2023-04-24T13:08:01;13.05;;;5.72;;
65998;SDS011;52766;56.008;37.440;2023-04-24T13:10:28;7.80;;;5.30;;
65998;SDS011;52766;56.008;37.440;2023-04-24T13:12:55;11.00;;;6.00;;
65998;SDS011;52766;56.008;37.440;2023-04-24T13:15:23;9.02;;;5.60;;
65998;SDS011;52766;56.008;37.440;2023-04-24T13:17:50;8.00;;;5.57;;
65998;SDS011;52766;56.008;37.440;2023-04-24T13:20:17;10.48;;;5.95;;
65998;SDS011;52766;56.008;37.440;2023-04-24T13:22:43;8.60;;;5.03;;
65998;SDS011;52766;56.008;37.440;2023-04-24T13:25:10;9.25;;;5.15;;
65998;SDS011;52766;56.008;37.440;2023-04-24T13:27:38;9.98;;;5.03;;
65998;SDS011;52766;56.008;37.440;2023-04-24T13:30:05;10.35;;;5.35;;
65998;SDS011;52766;56.008;37.440;2023-04-24T13:32:43;9.75;;;5.43;;
65998;SDS011;52766;56.008;37.440;2023-04-24T13:35:10;13.73;;;5.45;;
65998;SDS011;52766;56.008;37.440;2023-04-24T13:37:36;11.70;;;5.07;;
65998;SDS011;52766;56.008;37.440;2023-04-24T13:40:02;10.15;;;5.82;;
65998;SDS011;52766;56.008;37.440;2023-04-24T13:42:43;10.32;;;5.22;;
65998;SDS011;52766;56.008;37.440;2023-04-24T13:45:15;8.15;;;4.68;;
65998;SDS011;52766;56.008;37.440;2023-04-24T13:47:42;11.00;;;4.78;;
65998;SDS011;52766;56.008;37.440;2023-04-24T13:50:08;8.27;;;5.13;;
65998;SDS011;52766;56.008;37.440;2023-04-24T13:52:35;11.35;;;4.90;;
65998;SDS011;52766;56.008;37.440;2023-04-24T13:55:03;8.30;;;4.55;;
65998;SDS011;52766;56.008;37.440;2023-04-24T13:57:31;9.35;;;5.45;;
65998;SDS011;52766;56.008;37.440;2023-04-24T14:00:11;11.82;;;5.13;;
65998;SDS011;52766;56.008;37.440;2023-04-24T14:02:38;10.23;;;4.95;;
65998;SDS011;52766;56.008;37.440;2023-04-24T14:05:04;13.27;;;6.60;;
65998;SDS011;52766;56.008;37.440;2023-04-24T14:07:32;8.40;;;4.82;;
65998;SDS011;52766;56.008;37.440;2023-04-24T14:09:58;10.55;;;5.32;;
65998;SDS011;52766;56.008;37.440;2023-04-24T14:12:29;11.32;;;5.68;;
65998;SDS011;52766;56.008;37.440;2023-04-24T14:14:55;10.65;;;5.47;;
65998;SDS011;52766;56.008;37.440;2023-04-24T14:17:21;10.65;;;5.25;;
65998;SDS011;52766;56.008;37.440;2023-04-24T14:19:47;10.77;;;5.60;;
65998;SDS011;52766;56.008;37.440;2023-04-24T14:22:13;6.03;;;4.60;;
65998;SDS011;52766;56.008;37.440;2023-04-24T14:24:39;11.27;;;6.10;;
65998;SDS011;52766;56.008;37.440;2023-04-24T14:27:05;8.80;;;4.63;;
65998;SDS011;52766;56.008;37.440;2023-04-24T14:29:31;9.95;;;4.63;;
65998;SDS011;52766;56.008;37.440;2023-04-24T14:31:57;7.70;;;5.00;;
65998;SDS011;52766;56.008;37.440;2023-04-24T14:34:23;8.25;;;4.82;;
65998;SDS011;52766;56.008;37.440;2023-04-24T14:36:57;12.40;;;4.78;;
65998;SDS011;52766;56.008;37.440;2023-04-24T14:39:24;8.73;;;4.65;;
65998;SDS011;52766;56.008;37.440;2023-04-24T14:41:50;11.40;;;5.40;;
65998;SDS011;52766;56.008;37.440;2023-04-24T14:46:55;13.27;;;5.38;;
65998;SDS011;52766;56.008;37.440;2023-04-24T14:49:24;10.55;;;5.07;;
65998;SDS011;52766;56.008;37.440;2023-04-24T14:51:50;10.32;;;4.60;;
65998;SDS011;52766;56.008;37.440;2023-04-24T14:57:48;10.13;;;5.30;;
65998;SDS011;52766;56.008;37.440;2023-04-24T15:01:19;13.30;;;5.03;;
65998;SDS011;52766;56.008;37.440;2023-04-24T15:04:03;7.10;;;5.05;;
65998;SDS011;52766;56.008;37.440;2023-04-24T15:09:48;12.60;;;6.13;;
65998;SDS011;52766;56.008;37.440;2023-04-24T15:12:17;19.50;;;7.82;;
65998;SDS011;52766;56.008;37.440;2023-04-24T15:14:43;6.53;;;4.75;;
65998;SDS011;52766;56.008;37.440;2023-04-24T15:17:12;18.45;;;11.43;;
65998;SDS011;52766;56.008;37.440;2023-04-24T15:19:42;14.02;;;9.77;;
65998;SDS011;52766;56.008;37.440;2023-04-24T15:22:11;19.23;;;12.32;;
65998;SDS011;52766;56.008;37.440;2023-04-24T15:24:52;11.52;;;6.15;;
65998;SDS011;52766;56.008;37.440;2023-04-24T15:27:47;10.10;;;5.78;;
65998;SDS011;52766;56.008;37.440;2023-04-24T15:33:09;10.13;;;6.18;;
65998;SDS011;52766;56.008;37.440;2023-04-24T15:35:44;8.50;;;5.90;;
65998;SDS011;52766;56.008;37.440;2023-04-24T15:38:10;12.10;;;6.88;;
65998;SDS011;52766;56.008;37.440;2023-04-24T15:40:40;8.68;;;5.78;;
65998;SDS011;52766;56.008;37.440;2023-04-24T15:45:45;13.43;;;5.72;;
65998;SDS011;52766;56.008;37.440;2023-04-24T15:48:43;12.50;;;4.93;;
65998;SDS011;52766;56.008;37.440;2023-04-24T15:51:12;11.70;;;6.35;;